sensor_id;sensor_type;location;lat;lon;timestamp;P1;durP1;ratioP1;P2;durP2;ratioP2
15454;SDS011;21057;51.024;7.540;2024-03-29T00:01:48;21.63;;;20.23;;
15454;SDS011;21057;51.024;7.540;2024-03-29T00:04:14;21.90;;;20.60;;
15454;SDS011;21057;51.024;7.540;2024-03-29T00:06:40;21.57;;;20.27;;
15454;SDS011;21057;51.024;7.540;2024-03-29T00:09:06;22.10;;;20.80;;
15454;SDS011;21057;51.024;7.540;2024-03-29T00:11:31;21.53;;;20.23;;
15454;SDS011;21057;51.024;7.540;2024-03-29T00:13:57;22.23;;;20.83;;
15454;SDS011;21057;51.024;7.540;2024-03-29T00:16:25;21.87;;;20.50;;
15454;SDS011;21057;51.024;7.540;2024-03-29T00:18:50;21.80;;;20.50;;
15454;SDS011;21057;51.024;7.540;2024-03-29T00:21:17;21.57;;;20.27;;
15454;SDS011;21057;51.024;7.540;2024-03-29T00:23:43;22.57;;;21.17;;
15454;SDS011;21057;51.024;7.540;2024-03-29T00:26:09;22.20;;;20.90;;
15454;SDS011;21057;51.024;7.540;2024-03-29T00:28:35;22.27;;;20.60;;
15454;SDS011;21057;51.024;7.540;2024-03-29T00:31:00;21.40;;;20.10;;
15454;SDS011;21057;51.024;7.540;2024-03-29T00:33:28;21.90;;;20.60;;
15454;SDS011;21057;51.024;7.540;2024-03-29T00:35:54;22.53;;;21.07;;
15454;SDS011;21057;51.024;7.540;2024-03-29T00:38:19;22.27;;;20.87;;
15454;SDS011;21057;51.024;7.540;2024-03-29T00:40:45;22.27;;;20.87;;
15454;SDS011;21057;51.024;7.540;2024-03-29T00:43:11;21.87;;;20.57;;
15454;SDS011;21057;51.024;7.540;2024-03-29T00:45:37;21.90;;;20.60;;
15454;SDS011;21057;51.024;7.540;2024-03-29T00:48:03;22.07;;;20.77;;
15454;SDS011;21057;51.024;7.540;2024-03-29T00:50:31;21.90;;;20.60;;
15454;SDS011;21057;51.024;7.540;2024-03-29T00:52:57;22.10;;;20.80;;
15454;SDS011;21057;51.024;7.540;2024-03-29T00:55:22;21.90;;;20.60;;
15454;SDS011;21057;51.024;7.540;2024-03-29T00:57:48;22.00;;;20.60;;
15454;SDS011;21057;51.024;7.540;2024-03-29T01:00:14;22.20;;;20.70;;
15454;SDS011;21057;51.024;7.540;2024-03-29T01:02:40;21.80;;;20.50;;
15454;SDS011;21057;51.024;7.540;2024-03-29T01:05:07;21.67;;;20.37;;
15454;SDS011;21057;51.024;7.540;2024-03-29T01:07:34;21.63;;;20.33;;
15454;SDS011;21057;51.024;7.540;2024-03-29T01:10:00;21.80;;;20.50;;
15454;SDS011;21057;51.024;7.540;2024-03-29T01:12:26;21.70;;;20.40;;
15454;SDS011;21057;51.024;7.540;2024-03-29T01:14:52;21.60;;;20.30;;
15454;SDS011;21057;51.024;7.540;2024-03-29T01:17:18;22.30;;;20.70;;
15454;SDS011;21057;51.024;7.540;2024-03-29T01:19:44;22.10;;;20.80;;
15454;SDS011;21057;51.024;7.540;2024-03-29T01:22:10;22.10;;;20.70;;
15454;SDS011;21057;51.024;7.540;2024-03-29T01:24:37;21.60;;;20.27;;
15454;SDS011;21057;51.024;7.540;2024-03-29T01:27:03;21.87;;;20.53;;
15454;SDS011;21057;51.024;7.540;2024-03-29T01:29:30;22.03;;;20.73;;
15454;SDS011;21057;51.024;7.540;2024-03-29T01:31:55;21.87;;;20.57;;
15454;SDS011;21057;51.024;7.540;2024-03-29T01:34:21;21.60;;;20.30;;
15454;SDS011;21057;51.024;7.540;2024-03-29T01:36:47;22.17;;;20.67;;
15454;SDS011;21057;51.024;7.540;2024-03-29T01:39:13;22.57;;;20.70;;
15454;SDS011;21057;51.024;7.540;2024-03-29T01:41:40;21.50;;;20.20;;
15454;SDS011;21057;51.024;7.540;2024-03-29T01:44:06;21.73;;;20.43;;
15454;SDS011;21057;51.024;7.540;2024-03-29T01:46:34;21.07;;;19.87;;
15454;SDS011;21057;51.024;7.540;2024-03-29T01:49:02;21.63;;;20.20;;
15454;SDS011;21057;51.024;7.540;2024-03-29T01:51:30;21.37;;;20.07;;
15454;SDS011;21057;51.024;7.540;2024-03-29T01:53:57;21.27;;;19.97;;
15454;SDS011;21057;51.024;7.540;2024-03-29T01:56:25;21.50;;;20.20;;
15454;SDS011;21057;51.024;7.540;2024-03-29T01:58:54;21.40;;;20.10;;
15454;SDS011;21057;51.024;7.540;2024-03-29T02:01:24;21.93;;;20.50;;
15454;SDS011;21057;51.024;7.540;2024-03-29T02:03:53;21.70;;;20.40;;
15454;SDS011;21057;51.024;7.540;2024-03-29T02:06:21;21.80;;;20.50;;
15454;SDS011;21057;51.024;7.540;2024-03-29T02:08:49;22.10;;;20.50;;
15454;SDS011;21057;51.024;7.540;2024-03-29T02:11:18;21.90;;;20.50;;
15454;SDS011;21057;51.024;7.540;2024-03-29T02:13:45;21.57;;;20.17;;
15454;SDS011;21057;51.024;7.540;2024-03-29T02:16:14;22.43;;;20.80;;
15454;SDS011;21057;51.024;7.540;2024-03-29T02:18:41;21.60;;;20.30;;
15454;SDS011;21057;51.024;7.540;2024-03-29T02:21:08;22.10;;;20.70;;
15454;SDS011;21057;51.024;7.540;2024-03-29T02:23:36;21.87;;;20.57;;
15454;SDS011;21057;51.024;7.540;2024-03-29T02:26:07;22.53;;;21.13;;
15454;SDS011;21057;51.024;7.540;2024-03-29T02:28:34;22.03;;;20.60;;
15454;SDS011;21057;51.024;7.540;2024-03-29T02:31:01;21.80;;;20.33;;
15454;SDS011;21057;51.024;7.540;2024-03-29T02:33:28;22.37;;;20.67;;
15454;SDS011;21057;51.024;7.540;2024-03-29T02:35:55;21.40;;;20.10;;
15454;SDS011;21057;51.024;7.540;2024-03-29T02:38:22;21.93;;;20.63;;
15454;SDS011;21057;51.024;7.540;2024-03-29T02:40:49;22.27;;;20.67;;
15454;SDS011;21057;51.024;7.540;2024-03-29T02:43:17;21.30;;;20.00;;
15454;SDS011;21057;51.024;7.540;2024-03-29T02:45:43;21.70;;;20.20;;
15454;SDS011;21057;51.024;7.540;2024-03-29T02:48:11;21.87;;;20.43;;
15454;SDS011;21057;51.024;7.540;2024-03-29T02:50:36;21.90;;;20.40;;
15454;SDS011;21057;51.024;7.540;2024-03-29T02:53:03;21.40;;;20.10;;
15454;SDS011;21057;51.024;7.540;2024-03-29T02:55:30;21.50;;;20.20;;
15454;SDS011;21057;51.024;7.540;2024-03-29T02:57:56;21.30;;;20.00;;
15454;SDS011;21057;51.024;7.540;2024-03-29T03:00:24;21.87;;;20.20;;
15454;SDS011;21057;51.024;7.540;2024-03-29T03:02:50;21.43;;;20.13;;
15454;SDS011;21057;51.024;7.540;2024-03-29T03:05:17;21.27;;;19.97;;
15454;SDS011;21057;51.024;7.540;2024-03-29T03:07:42;20.97;;;19.67;;
15454;SDS011;21057;51.024;7.540;2024-03-29T03:10:27;21.30;;;20.00;;
15454;SDS011;21057;51.024;7.540;2024-03-29T03:13:11;20.80;;;19.60;;
15454;SDS011;21057;51.024;7.540;2024-03-29T03:15:40;21.23;;;19.83;;
15454;SDS011;21057;51.024;7.540;2024-03-29T03:18:06;21.00;;;19.80;;
15454;SDS011;21057;51.024;7.540;2024-03-29T03:20:33;20.67;;;19.47;;
15454;SDS011;21057;51.024;7.540;2024-03-29T03:22:59;21.07;;;19.77;;
15454;SDS011;21057;51.024;7.540;2024-03-29T03:25:26;21.10;;;19.67;;
15454;SDS011;21057;51.024;7.540;2024-03-29T03:27:52;21.50;;;19.90;;
15454;SDS011;21057;51.024;7.540;2024-03-29T03:30:19;21.40;;;20.10;;
15454;SDS011;21057;51.024;7.540;2024-03-29T03:32:46;20.23;;;19.03;;
15454;SDS011;21057;51.024;7.540;2024-03-29T03:35:13;20.30;;;19.10;;
15454;SDS011;21057;51.024;7.540;2024-03-29T03:37:39;20.40;;;19.00;;
15454;SDS011;21057;51.024;7.540;2024-03-29T03:40:06;20.33;;;19.03;;
15454;SDS011;21057;51.024;7.540;2024-03-29T03:42:33;20.03;;;18.57;;
15454;SDS011;21057;51.024;7.540;2024-03-29T03:45:00;20.30;;;19.10;;
15454;SDS011;21057;51.024;7.540;2024-03-29T03:47:25;19.97;;;18.77;;
15454;SDS011;21057;51.024;7.540;2024-03-29T03:49:54;20.60;;;19.30;;
15454;SDS011;21057;51.024;7.540;2024-03-29T03:52:19;20.20;;;18.73;;
15454;SDS011;21057;51.024;7.540;2024-03-29T03:54:46;20.70;;;19.40;;
15454;SDS011;21057;51.024;7.540;2024-03-29T03:57:12;20.23;;;19.03;;
15454;SDS011;21057;51.024;7.540;2024-03-29T03:59:39;20.63;;;19.43;;
15454;SDS011;21057;51.024;7.540;2024-03-29T04:02:05;20.50;;;19.30;;
15454;SDS011;21057;51.024;7.540;2024-03-29T04:04:31;21.03;;;19.73;;
15454;SDS011;21057;51.024;7.540;2024-03-29T04:06:58;21.00;;;19.70;;
15454;SDS011;21057;51.024;7.540;2024-03-29T04:09:25;21.57;;;20.27;;
15454;SDS011;21057;51.024;7.540;2024-03-29T04:11:51;20.80;;;19.60;;
15454;SDS011;21057;51.024;7.540;2024-03-29T04:14:18;20.93;;;19.63;;
15454;SDS011;21057;51.024;7.540;2024-03-29T04:16:44;21.00;;;19.80;;
15454;SDS011;21057;51.024;7.540;2024-03-29T04:19:12;21.40;;;20.07;;
15454;SDS011;21057;51.024;7.540;2024-03-29T04:21:38;21.37;;;19.90;;
15454;SDS011;21057;51.024;7.540;2024-03-29T04:24:06;21.80;;;20.60;;
15454;SDS011;21057;51.024;7.540;2024-03-29T04:26:36;21.00;;;19.80;;
15454;SDS011;21057;51.024;7.540;2024-03-29T04:29:03;21.73;;;20.53;;
15454;SDS011;21057;51.024;7.540;2024-03-29T04:31:29;22.57;;;21.13;;
15454;SDS011;21057;51.024;7.540;2024-03-29T04:33:56;22.67;;;21.37;;
15454;SDS011;21057;51.024;7.540;2024-03-29T04:36:22;25.60;;;22.30;;
15454;SDS011;21057;51.024;7.540;2024-03-29T04:38:49;23.73;;;22.43;;
15454;SDS011;21057;51.024;7.540;2024-03-29T04:41:17;24.33;;;22.83;;
15454;SDS011;21057;51.024;7.540;2024-03-29T04:43:44;24.17;;;22.07;;
15454;SDS011;21057;51.024;7.540;2024-03-29T04:46:11;23.80;;;22.20;;
15454;SDS011;21057;51.024;7.540;2024-03-29T04:48:39;24.60;;;23.10;;
15454;SDS011;21057;51.024;7.540;2024-03-29T04:51:06;24.00;;;22.60;;
15454;SDS011;21057;51.024;7.540;2024-03-29T04:53:34;24.27;;;22.87;;
15454;SDS011;21057;51.024;7.540;2024-03-29T04:56:02;24.23;;;22.83;;
15454;SDS011;21057;51.024;7.540;2024-03-29T04:58:29;24.33;;;22.93;;
15454;SDS011;21057;51.024;7.540;2024-03-29T05:00:57;25.10;;;23.60;;
15454;SDS011;21057;51.024;7.540;2024-03-29T05:03:23;25.23;;;23.63;;
15454;SDS011;21057;51.024;7.540;2024-03-29T05:05:50;25.80;;;23.80;;
15454;SDS011;21057;51.024;7.540;2024-03-29T05:08:18;24.97;;;23.47;;
15454;SDS011;21057;51.024;7.540;2024-03-29T05:10:47;26.17;;;24.57;;
15454;SDS011;21057;51.024;7.540;2024-03-29T05:13:15;26.30;;;24.70;;
15454;SDS011;21057;51.024;7.540;2024-03-29T05:15:47;27.70;;;25.83;;
15454;SDS011;21057;51.024;7.540;2024-03-29T05:18:14;27.90;;;26.20;;
15454;SDS011;21057;51.024;7.540;2024-03-29T05:20:41;27.47;;;25.73;;
15454;SDS011;21057;51.024;7.540;2024-03-29T05:23:12;27.70;;;25.90;;
15454;SDS011;21057;51.024;7.540;2024-03-29T05:25:39;28.60;;;26.80;;
15454;SDS011;21057;51.024;7.540;2024-03-29T05:28:06;28.47;;;26.67;;
15454;SDS011;21057;51.024;7.540;2024-03-29T05:30:33;28.37;;;26.57;;
15454;SDS011;21057;51.024;7.540;2024-03-29T05:33:02;28.77;;;26.97;;
15454;SDS011;21057;51.024;7.540;2024-03-29T05:35:29;29.30;;;26.97;;
15454;SDS011;21057;51.024;7.540;2024-03-29T05:37:56;28.77;;;26.77;;
15454;SDS011;21057;51.024;7.540;2024-03-29T05:40:23;28.23;;;26.53;;
15454;SDS011;21057;51.024;7.540;2024-03-29T05:42:52;28.73;;;26.93;;
15454;SDS011;21057;51.024;7.540;2024-03-29T05:45:23;29.20;;;27.30;;
15454;SDS011;21057;51.024;7.540;2024-03-29T05:47:51;30.27;;;28.17;;
15454;SDS011;21057;51.024;7.540;2024-03-29T05:50:21;30.40;;;28.50;;
15454;SDS011;21057;51.024;7.540;2024-03-29T05:52:48;29.03;;;27.23;;
15454;SDS011;21057;51.024;7.540;2024-03-29T05:55:16;29.67;;;27.77;;
15454;SDS011;21057;51.024;7.540;2024-03-29T05:57:43;29.87;;;27.87;;
15454;SDS011;21057;51.024;7.540;2024-03-29T06:00:11;30.10;;;28.20;;
15454;SDS011;21057;51.024;7.540;2024-03-29T06:02:39;30.40;;;28.40;;
15454;SDS011;21057;51.024;7.540;2024-03-29T06:05:07;31.03;;;29.03;;
15454;SDS011;21057;51.024;7.540;2024-03-29T06:07:36;30.03;;;28.13;;
15454;SDS011;21057;51.024;7.540;2024-03-29T06:10:04;31.60;;;29.60;;
15454;SDS011;21057;51.024;7.540;2024-03-29T06:12:32;32.80;;;30.60;;
15454;SDS011;21057;51.024;7.540;2024-03-29T06:14:59;33.07;;;30.97;;
15454;SDS011;21057;51.024;7.540;2024-03-29T06:17:44;35.70;;;33.50;;
15454;SDS011;21057;51.024;7.540;2024-03-29T06:20:11;35.47;;;32.90;;
15454;SDS011;21057;51.024;7.540;2024-03-29T06:22:39;34.37;;;32.23;;
15454;SDS011;21057;51.024;7.540;2024-03-29T06:25:06;35.03;;;32.63;;
15454;SDS011;21057;51.024;7.540;2024-03-29T06:27:34;34.10;;;32.00;;
15454;SDS011;21057;51.024;7.540;2024-03-29T06:30:02;36.87;;;34.60;;
15454;SDS011;21057;51.024;7.540;2024-03-29T06:32:30;36.30;;;34.00;;
15454;SDS011;21057;51.024;7.540;2024-03-29T06:34:57;36.30;;;34.00;;
15454;SDS011;21057;51.024;7.540;2024-03-29T06:37:25;37.20;;;34.90;;
15454;SDS011;21057;51.024;7.540;2024-03-29T06:39:53;36.73;;;34.43;;
15454;SDS011;21057;51.024;7.540;2024-03-29T06:42:20;36.53;;;34.23;;
15454;SDS011;21057;51.024;7.540;2024-03-29T06:44:47;36.03;;;33.83;;
15454;SDS011;21057;51.024;7.540;2024-03-29T06:47:14;37.73;;;35.43;;
15454;SDS011;21057;51.024;7.540;2024-03-29T06:49:41;37.60;;;35.30;;
15454;SDS011;21057;51.024;7.540;2024-03-29T06:52:08;39.13;;;36.73;;
15454;SDS011;21057;51.024;7.540;2024-03-29T06:54:35;40.00;;;37.60;;
15454;SDS011;21057;51.024;7.540;2024-03-29T06:57:03;39.67;;;36.87;;
15454;SDS011;21057;51.024;7.540;2024-03-29T06:59:30;38.53;;;36.13;;
15454;SDS011;21057;51.024;7.540;2024-03-29T07:01:57;43.57;;;41.07;;
15454;SDS011;21057;51.024;7.540;2024-03-29T07:04:24;43.17;;;40.77;;
15454;SDS011;21057;51.024;7.540;2024-03-29T07:06:53;41.73;;;39.27;;
15454;SDS011;21057;51.024;7.540;2024-03-29T07:09:20;37.70;;;35.50;;
15454;SDS011;21057;51.024;7.540;2024-03-29T07:11:49;38.13;;;35.63;;
15454;SDS011;21057;51.024;7.540;2024-03-29T07:14:18;38.37;;;36.00;;
15454;SDS011;21057;51.024;7.540;2024-03-29T07:16:45;40.90;;;38.30;;
15454;SDS011;21057;51.024;7.540;2024-03-29T07:19:12;40.00;;;37.60;;
15454;SDS011;21057;51.024;7.540;2024-03-29T07:21:41;42.27;;;39.80;;
15454;SDS011;21057;51.024;7.540;2024-03-29T07:24:08;44.03;;;41.53;;
15454;SDS011;21057;51.024;7.540;2024-03-29T07:26:35;41.10;;;38.50;;
15454;SDS011;21057;51.024;7.540;2024-03-29T07:29:02;40.03;;;37.57;;
15454;SDS011;21057;51.024;7.540;2024-03-29T07:31:31;41.40;;;38.80;;
15454;SDS011;21057;51.024;7.540;2024-03-29T07:33:58;41.83;;;39.33;;
15454;SDS011;21057;51.024;7.540;2024-03-29T07:36:25;40.60;;;38.13;;
15454;SDS011;21057;51.024;7.540;2024-03-29T07:38:56;40.30;;;37.80;;
15454;SDS011;21057;51.024;7.540;2024-03-29T07:41:23;41.20;;;38.77;;
15454;SDS011;21057;51.024;7.540;2024-03-29T07:43:53;40.43;;;38.03;;
15454;SDS011;21057;51.024;7.540;2024-03-29T07:46:27;40.27;;;37.87;;
15454;SDS011;21057;51.024;7.540;2024-03-29T07:48:56;39.07;;;36.47;;
15454;SDS011;21057;51.024;7.540;2024-03-29T07:51:23;41.20;;;38.70;;
15454;SDS011;21057;51.024;7.540;2024-03-29T07:53:50;42.40;;;39.60;;
15454;SDS011;21057;51.024;7.540;2024-03-29T07:56:17;40.37;;;37.97;;
15454;SDS011;21057;51.024;7.540;2024-03-29T07:58:46;39.07;;;36.50;;
15454;SDS011;21057;51.024;7.540;2024-03-29T08:01:17;42.50;;;40.10;;
15454;SDS011;21057;51.024;7.540;2024-03-29T08:03:45;40.93;;;38.57;;
15454;SDS011;21057;51.024;7.540;2024-03-29T08:06:13;41.60;;;39.23;;
15454;SDS011;21057;51.024;7.540;2024-03-29T08:08:43;39.20;;;36.80;;
15454;SDS011;21057;51.024;7.540;2024-03-29T08:11:10;39.10;;;36.70;;
15454;SDS011;21057;51.024;7.540;2024-03-29T08:13:37;39.43;;;37.03;;
15454;SDS011;21057;51.024;7.540;2024-03-29T08:16:05;39.40;;;37.00;;
15454;SDS011;21057;51.024;7.540;2024-03-29T08:18:32;40.43;;;38.07;;
15454;SDS011;21057;51.024;7.540;2024-03-29T08:20:59;39.40;;;37.10;;
15454;SDS011;21057;51.024;7.540;2024-03-29T08:23:28;39.50;;;37.20;;
15454;SDS011;21057;51.024;7.540;2024-03-29T08:25:55;37.60;;;35.37;;
15454;SDS011;21057;51.024;7.540;2024-03-29T08:28:22;36.73;;;34.53;;
15454;SDS011;21057;51.024;7.540;2024-03-29T08:30:59;37.03;;;34.83;;
15454;SDS011;21057;51.024;7.540;2024-03-29T08:33:26;36.20;;;34.00;;
15454;SDS011;21057;51.024;7.540;2024-03-29T08:35:53;36.20;;;34.00;;
15454;SDS011;21057;51.024;7.540;2024-03-29T08:38:20;35.60;;;33.10;;
15454;SDS011;21057;51.024;7.540;2024-03-29T08:40:48;36.93;;;34.73;;
15454;SDS011;21057;51.024;7.540;2024-03-29T08:43:15;35.50;;;33.40;;
15454;SDS011;21057;51.024;7.540;2024-03-29T08:45:43;35.73;;;33.63;;
15454;SDS011;21057;51.024;7.540;2024-03-29T08:48:10;34.47;;;32.37;;
15454;SDS011;21057;51.024;7.540;2024-03-29T08:50:36;36.77;;;34.57;;
15454;SDS011;21057;51.024;7.540;2024-03-29T08:53:04;36.13;;;33.83;;
15454;SDS011;21057;51.024;7.540;2024-03-29T08:55:30;35.63;;;33.43;;
15454;SDS011;21057;51.024;7.540;2024-03-29T08:57:59;34.10;;;32.00;;
15454;SDS011;21057;51.024;7.540;2024-03-29T09:00:27;34.20;;;32.10;;
15454;SDS011;21057;51.024;7.540;2024-03-29T09:02:55;33.27;;;30.93;;
15454;SDS011;21057;51.024;7.540;2024-03-29T09:05:22;33.80;;;31.70;;
15454;SDS011;21057;51.024;7.540;2024-03-29T09:07:49;32.03;;;30.10;;
15454;SDS011;21057;51.024;7.540;2024-03-29T09:10:16;31.27;;;29.37;;
15454;SDS011;21057;51.024;7.540;2024-03-29T09:12:43;31.93;;;29.87;;
15454;SDS011;21057;51.024;7.540;2024-03-29T09:15:11;31.17;;;29.27;;
15454;SDS011;21057;51.024;7.540;2024-03-29T09:17:40;31.60;;;29.50;;
15454;SDS011;21057;51.024;7.540;2024-03-29T09:20:07;32.67;;;30.70;;
15454;SDS011;21057;51.024;7.540;2024-03-29T09:22:35;32.70;;;30.70;;
15454;SDS011;21057;51.024;7.540;2024-03-29T09:25:03;32.60;;;30.60;;
15454;SDS011;21057;51.024;7.540;2024-03-29T09:27:30;31.60;;;29.70;;
15454;SDS011;21057;51.024;7.540;2024-03-29T09:29:59;29.20;;;27.40;;
15454;SDS011;21057;51.024;7.540;2024-03-29T09:32:27;30.00;;;27.90;;
15454;SDS011;21057;51.024;7.540;2024-03-29T09:34:54;30.20;;;28.30;;
15454;SDS011;21057;51.024;7.540;2024-03-29T09:37:21;30.20;;;28.40;;
15454;SDS011;21057;51.024;7.540;2024-03-29T09:39:49;30.53;;;28.73;;
15454;SDS011;21057;51.024;7.540;2024-03-29T09:42:16;31.77;;;29.90;;
15454;SDS011;21057;51.024;7.540;2024-03-29T09:44:43;29.50;;;27.80;;
15454;SDS011;21057;51.024;7.540;2024-03-29T09:47:11;32.67;;;30.77;;
15454;SDS011;21057;51.024;7.540;2024-03-29T09:49:44;30.10;;;28.30;;
15454;SDS011;21057;51.024;7.540;2024-03-29T09:52:13;30.13;;;28.33;;
15454;SDS011;21057;51.024;7.540;2024-03-29T09:54:41;32.30;;;30.50;;
15454;SDS011;21057;51.024;7.540;2024-03-29T09:57:08;32.17;;;30.37;;
15454;SDS011;21057;51.024;7.540;2024-03-29T09:59:38;29.23;;;27.43;;
15454;SDS011;21057;51.024;7.540;2024-03-29T10:02:08;28.10;;;26.30;;
15454;SDS011;21057;51.024;7.540;2024-03-29T10:04:40;26.97;;;25.27;;
15454;SDS011;21057;51.024;7.540;2024-03-29T10:07:10;29.03;;;27.13;;
15454;SDS011;21057;51.024;7.540;2024-03-29T10:09:37;28.63;;;26.93;;
15454;SDS011;21057;51.024;7.540;2024-03-29T10:12:05;29.10;;;27.30;;
15454;SDS011;21057;51.024;7.540;2024-03-29T10:14:42;28.50;;;26.80;;
15454;SDS011;21057;51.024;7.540;2024-03-29T10:17:14;27.40;;;25.80;;
15454;SDS011;21057;51.024;7.540;2024-03-29T10:19:41;26.67;;;24.97;;
15454;SDS011;21057;51.024;7.540;2024-03-29T10:22:09;27.40;;;25.80;;
15454;SDS011;21057;51.024;7.540;2024-03-29T10:24:36;28.37;;;26.77;;
15454;SDS011;21057;51.024;7.540;2024-03-29T10:27:03;26.30;;;24.60;;
15454;SDS011;21057;51.024;7.540;2024-03-29T10:29:31;25.63;;;24.03;;
15454;SDS011;21057;51.024;7.540;2024-03-29T10:31:57;24.83;;;23.33;;
15454;SDS011;21057;51.024;7.540;2024-03-29T10:34:24;24.70;;;23.20;;
15454;SDS011;21057;51.024;7.540;2024-03-29T10:36:51;25.10;;;23.60;;
15454;SDS011;21057;51.024;7.540;2024-03-29T10:39:20;25.87;;;24.27;;
15454;SDS011;21057;51.024;7.540;2024-03-29T10:41:47;25.00;;;23.50;;
15454;SDS011;21057;51.024;7.540;2024-03-29T10:44:16;25.93;;;24.17;;
15454;SDS011;21057;51.024;7.540;2024-03-29T10:46:45;24.87;;;23.37;;
15454;SDS011;21057;51.024;7.540;2024-03-29T10:49:16;26.83;;;25.17;;
15454;SDS011;21057;51.024;7.540;2024-03-29T10:51:44;24.70;;;23.20;;
15454;SDS011;21057;51.024;7.540;2024-03-29T10:54:11;24.67;;;23.17;;
15454;SDS011;21057;51.024;7.540;2024-03-29T10:56:40;25.77;;;24.27;;
15454;SDS011;21057;51.024;7.540;2024-03-29T10:59:11;25.00;;;23.40;;
15454;SDS011;21057;51.024;7.540;2024-03-29T11:01:44;25.27;;;23.67;;
15454;SDS011;21057;51.024;7.540;2024-03-29T11:04:17;24.40;;;22.90;;
15454;SDS011;21057;51.024;7.540;2024-03-29T11:06:48;23.87;;;22.40;;
15454;SDS011;21057;51.024;7.540;2024-03-29T11:09:17;23.50;;;22.10;;
15454;SDS011;21057;51.024;7.540;2024-03-29T11:11:50;23.23;;;21.83;;
15454;SDS011;21057;51.024;7.540;2024-03-29T11:14:18;23.23;;;21.83;;
15454;SDS011;21057;51.024;7.540;2024-03-29T11:16:50;23.30;;;21.90;;
15454;SDS011;21057;51.024;7.540;2024-03-29T11:19:22;23.13;;;21.73;;
15454;SDS011;21057;51.024;7.540;2024-03-29T11:21:49;22.83;;;21.43;;
15454;SDS011;21057;51.024;7.540;2024-03-29T11:24:16;22.43;;;21.03;;
15454;SDS011;21057;51.024;7.540;2024-03-29T11:26:44;22.23;;;20.93;;
15454;SDS011;21057;51.024;7.540;2024-03-29T11:29:19;24.27;;;22.30;;
15454;SDS011;21057;51.024;7.540;2024-03-29T11:31:46;23.40;;;22.00;;
15454;SDS011;21057;51.024;7.540;2024-03-29T11:34:18;22.80;;;21.40;;
15454;SDS011;21057;51.024;7.540;2024-03-29T11:36:45;22.73;;;21.43;;
15454;SDS011;21057;51.024;7.540;2024-03-29T11:39:19;24.17;;;22.70;;
15454;SDS011;21057;51.024;7.540;2024-03-29T11:41:46;23.83;;;22.43;;
15454;SDS011;21057;51.024;7.540;2024-03-29T11:44:14;24.37;;;22.47;;
15454;SDS011;21057;51.024;7.540;2024-03-29T11:46:42;23.13;;;21.73;;
15454;SDS011;21057;51.024;7.540;2024-03-29T11:49:09;23.63;;;22.23;;
15454;SDS011;21057;51.024;7.540;2024-03-29T11:51:36;23.63;;;21.77;;
15454;SDS011;21057;51.024;7.540;2024-03-29T11:54:03;22.27;;;20.87;;
15454;SDS011;21057;51.024;7.540;2024-03-29T11:56:30;22.50;;;21.10;;
15454;SDS011;21057;51.024;7.540;2024-03-29T11:58:57;21.77;;;20.47;;
15454;SDS011;21057;51.024;7.540;2024-03-29T12:01:25;22.70;;;21.30;;
15454;SDS011;21057;51.024;7.540;2024-03-29T12:03:55;22.67;;;21.37;;
15454;SDS011;21057;51.024;7.540;2024-03-29T12:06:22;22.37;;;21.07;;
15454;SDS011;21057;51.024;7.540;2024-03-29T12:08:49;22.80;;;21.40;;
15454;SDS011;21057;51.024;7.540;2024-03-29T12:11:18;23.33;;;21.93;;
15454;SDS011;21057;51.024;7.540;2024-03-29T12:13:44;23.83;;;22.33;;
15454;SDS011;21057;51.024;7.540;2024-03-29T12:16:11;23.93;;;22.53;;
15454;SDS011;21057;51.024;7.540;2024-03-29T12:18:38;22.67;;;21.27;;
15454;SDS011;21057;51.024;7.540;2024-03-29T12:21:06;23.77;;;22.37;;
15454;SDS011;21057;51.024;7.540;2024-03-29T12:23:34;23.23;;;21.83;;
15454;SDS011;21057;51.024;7.540;2024-03-29T12:26:01;23.20;;;21.80;;
15454;SDS011;21057;51.024;7.540;2024-03-29T12:28:28;22.50;;;21.10;;
15454;SDS011;21057;51.024;7.540;2024-03-29T12:30:59;22.87;;;21.47;;
15454;SDS011;21057;51.024;7.540;2024-03-29T12:33:26;22.60;;;21.30;;
15454;SDS011;21057;51.024;7.540;2024-03-29T12:35:53;23.97;;;22.27;;
15454;SDS011;21057;51.024;7.540;2024-03-29T12:38:24;24.50;;;23.00;;
15454;SDS011;21057;51.024;7.540;2024-03-29T12:40:50;25.53;;;23.93;;
15454;SDS011;21057;51.024;7.540;2024-03-29T12:43:20;25.73;;;24.10;;
15454;SDS011;21057;51.024;7.540;2024-03-29T12:45:48;27.67;;;25.87;;
15454;SDS011;21057;51.024;7.540;2024-03-29T12:48:16;29.03;;;27.13;;
15454;SDS011;21057;51.024;7.540;2024-03-29T12:50:44;30.80;;;28.80;;
15454;SDS011;21057;51.024;7.540;2024-03-29T12:53:13;31.43;;;29.33;;
15454;SDS011;21057;51.024;7.540;2024-03-29T12:55:42;31.50;;;29.40;;
15454;SDS011;21057;51.024;7.540;2024-03-29T12:58:11;31.77;;;29.67;;
15454;SDS011;21057;51.024;7.540;2024-03-29T13:00:38;33.47;;;31.27;;
15454;SDS011;21057;51.024;7.540;2024-03-29T13:03:06;33.63;;;31.23;;
15454;SDS011;21057;51.024;7.540;2024-03-29T13:05:33;33.67;;;31.43;;
15454;SDS011;21057;51.024;7.540;2024-03-29T13:08:05;34.27;;;32.17;;
15454;SDS011;21057;51.024;7.540;2024-03-29T13:10:34;32.80;;;30.70;;
15454;SDS011;21057;51.024;7.540;2024-03-29T13:13:02;32.40;;;30.30;;
15454;SDS011;21057;51.024;7.540;2024-03-29T13:15:32;31.90;;;29.70;;
15454;SDS011;21057;51.024;7.540;2024-03-29T13:18:00;32.53;;;30.43;;
15454;SDS011;21057;51.024;7.540;2024-03-29T13:20:28;30.90;;;28.90;;
15454;SDS011;21057;51.024;7.540;2024-03-29T13:22:57;33.00;;;30.90;;
15454;SDS011;21057;51.024;7.540;2024-03-29T13:25:24;35.23;;;32.93;;
15454;SDS011;21057;51.024;7.540;2024-03-29T13:27:52;35.20;;;33.10;;
15454;SDS011;21057;51.024;7.540;2024-03-29T13:30:22;34.50;;;32.40;;
15454;SDS011;21057;51.024;7.540;2024-03-29T13:32:50;37.43;;;35.07;;
15454;SDS011;21057;51.024;7.540;2024-03-29T13:35:17;37.53;;;35.23;;
15454;SDS011;21057;51.024;7.540;2024-03-29T13:37:46;37.17;;;34.97;;
15454;SDS011;21057;51.024;7.540;2024-03-29T13:40:14;36.70;;;34.40;;
15454;SDS011;21057;51.024;7.540;2024-03-29T13:42:42;36.50;;;34.10;;
15454;SDS011;21057;51.024;7.540;2024-03-29T13:45:10;34.67;;;32.50;;
15454;SDS011;21057;51.024;7.540;2024-03-29T13:47:39;35.90;;;33.70;;
15454;SDS011;21057;51.024;7.540;2024-03-29T13:50:06;37.97;;;35.57;;
15454;SDS011;21057;51.024;7.540;2024-03-29T13:52:34;35.20;;;33.00;;
15454;SDS011;21057;51.024;7.540;2024-03-29T13:55:01;34.83;;;32.67;;
15454;SDS011;21057;51.024;7.540;2024-03-29T13:57:29;35.30;;;33.27;;
15454;SDS011;21057;51.024;7.540;2024-03-29T13:59:56;34.57;;;32.47;;
15454;SDS011;21057;51.024;7.540;2024-03-29T14:02:23;36.67;;;34.37;;
15454;SDS011;21057;51.024;7.540;2024-03-29T14:04:54;35.80;;;33.60;;
15454;SDS011;21057;51.024;7.540;2024-03-29T14:07:22;35.00;;;32.80;;
15454;SDS011;21057;51.024;7.540;2024-03-29T14:09:50;35.33;;;33.13;;
15454;SDS011;21057;51.024;7.540;2024-03-29T14:12:17;35.17;;;32.97;;
15454;SDS011;21057;51.024;7.540;2024-03-29T14:14:46;35.70;;;33.40;;
15454;SDS011;21057;51.024;7.540;2024-03-29T14:17:16;34.20;;;32.10;;
15454;SDS011;21057;51.024;7.540;2024-03-29T14:19:42;34.43;;;32.20;;
15454;SDS011;21057;51.024;7.540;2024-03-29T14:22:11;36.90;;;34.60;;
15454;SDS011;21057;51.024;7.540;2024-03-29T14:24:40;35.40;;;33.20;;